createdAt,value
2022-07-28T00:02:52.127Z,80.20
2022-07-28T00:07:56.797Z,81.00
2022-07-28T00:13:00.503Z,81.60
2022-07-28T00:18:05.205Z,82.40
2022-07-28T00:23:08.430Z,83.30
2022-07-28T00:28:12.031Z,84.10
2022-07-28T00:33:16.985Z,84.70
2022-07-28T00:38:20.417Z,85.30
2022-07-28T00:43:26.469Z,86.10
2022-07-28T00:48:31.552Z,86.50
2022-07-28T00:53:35.087Z,86.80
2022-07-28T00:58:39.638Z,86.90
2022-07-28T01:03:46.247Z,87.00
2022-07-28T01:08:54.519Z,87.00
2022-07-28T01:14:01.964Z,87.50
2022-07-28T01:19:11.674Z,88.10
2022-07-28T01:24:24.085Z,88.50
2022-07-28T01:29:35.402Z,89.00
2022-07-28T01:34:43.080Z,89.30
2022-07-28T01:39:47.034Z,89.80
2022-07-28T01:44:51.672Z,89.80
2022-07-28T01:49:56.827Z,89.90
2022-07-28T01:55:01.726Z,90.00
2022-07-28T02:00:06.330Z,90.20
2022-07-28T02:05:19.217Z,90.20
2022-07-28T02:10:26.356Z,90.50
2022-07-28T02:15:30.867Z,90.90
2022-07-28T02:20:36.123Z,91.00
2022-07-28T02:25:40.414Z,91.10
2022-07-28T02:30:48.162Z,91.20
2022-07-28T02:35:56.750Z,91.20
2022-07-28T02:41:05.703Z,91.40
2022-07-28T02:46:11.561Z,91.70
2022-07-28T02:51:17.350Z,91.90
2022-07-28T02:56:21.377Z,92.20
2022-07-28T03:01:25.674Z,92.40
2022-07-28T03:06:30.463Z,92.50
2022-07-28T03:11:33.920Z,92.60
2022-07-28T03:16:37.495Z,92.70
2022-07-28T03:21:42.330Z,92.70
2022-07-28T03:26:49.850Z,92.90
2022-07-28T03:31:54.289Z,92.90
2022-07-28T03:37:02.252Z,93.10
2022-07-28T03:42:06.523Z,93.00
2022-07-28T03:47:09.941Z,93.30
2022-07-28T03:52:14.649Z,93.20
2022-07-28T03:57:18.193Z,93.50
2022-07-28T04:02:21.665Z,93.60
2022-07-28T04:07:26.645Z,93.60
2022-07-28T04:12:30.002Z,93.60
2022-07-28T04:17:33.570Z,93.40
2022-07-28T04:22:38.482Z,93.50
2022-07-28T04:27:41.986Z,92.90
2022-07-28T04:32:46.171Z,93.00
2022-07-28T04:37:51.176Z,92.60
2022-07-28T04:42:54.607Z,92.70
2022-07-28T04:47:58.289Z,92.50
2022-07-28T04:53:03.214Z,92.70
2022-07-28T04:58:06.625Z,91.20
2022-07-28T05:03:13.331Z,90.90
2022-07-28T05:08:18.213Z,90.40
2022-07-28T05:13:21.697Z,90.00
2022-07-28T05:18:25.022Z,86.80
2022-07-28T05:23:29.934Z,86.50
2022-07-28T05:28:33.471Z,86.10
2022-07-28T05:33:36.695Z,86.40
2022-07-28T05:38:41.568Z,85.40
2022-07-28T05:43:45.298Z,84.40
2022-07-28T05:48:49.260Z,84.10
2022-07-28T05:53:54.371Z,83.10
2022-07-28T05:58:57.794Z,83.10
2022-07-28T06:04:26.772Z,82.80
2022-07-28T06:09:25.948Z,82.70
2022-07-28T06:14:29.447Z,82.80
2022-07-28T06:19:32.873Z,81.80
2022-07-28T06:24:38.199Z,81.40
2022-07-28T06:29:41.925Z,81.00
2022-07-28T06:34:45.853Z,80.60
2022-07-28T06:39:50.374Z,80.20
2022-07-28T06:45:01.297Z,80.40
2022-07-28T06:50:05.312Z,80.00
2022-07-28T06:55:35.586Z,80.20
2022-07-28T07:00:39.490Z,80.50
2022-07-28T07:05:42.632Z,81.00
2022-07-28T07:10:47.361Z,80.50
2022-07-28T07:15:50.939Z,81.00
2022-07-28T07:20:54.914Z,79.80
2022-07-28T07:25:59.635Z,80.50
2022-07-28T07:31:02.947Z,79.40
2022-07-28T07:36:07.014Z,79.10
2022-07-28T07:41:12.323Z,78.90
2022-07-28T07:46:17.197Z,78.90
2022-07-28T07:51:20.623Z,77.80
2022-07-28T07:56:25.415Z,78.00
2022-07-28T08:01:29.029Z,76.70
2022-07-28T08:06:32.692Z,75.20
2022-07-28T08:11:40.540Z,75.50
2022-07-28T08:16:44.066Z,73.40
2022-07-28T08:21:47.755Z,73.70
2022-07-28T08:26:52.814Z,71.60
2022-07-28T08:31:56.424Z,71.90
2022-07-28T08:36:59.799Z,69.50
2022-07-28T08:42:06.056Z,69.80
2022-07-28T08:47:13.362Z,67.30
2022-07-28T08:52:20.540Z,67.50
2022-07-28T08:57:27.479Z,64.60
2022-07-28T09:02:31.601Z,64.70
2022-07-28T09:07:37.902Z,63.20
2022-07-28T09:12:42.969Z,63.30
2022-07-28T09:17:46.223Z,61.80
2022-07-28T09:22:57.300Z,62.10
2022-07-28T09:28:06.871Z,61.50
2022-07-28T09:33:41.229Z,61.00
2022-07-28T09:38:41.137Z,60.10
2022-07-28T09:43:49.869Z,59.20
2022-07-28T09:48:59.233Z,59.10
2022-07-28T09:54:09.806Z,58.20
2022-07-28T09:59:15.298Z,57.50
2022-07-28T10:04:29.722Z,56.90
2022-07-28T10:09:32.939Z,56.20
2022-07-28T10:14:37.857Z,55.60
2022-07-28T10:19:41.368Z,54.90
2022-07-28T10:24:45.315Z,55.00
2022-07-28T10:29:52.995Z,54.40
2022-07-28T10:35:01.291Z,53.50
2022-07-28T10:40:10.030Z,53.60
2022-07-28T10:45:15.471Z,53.50
2022-07-28T10:50:19.820Z,53.50
2022-07-28T10:55:31.911Z,53.30
2022-07-28T11:00:55.316Z,53.20
2022-07-28T11:05:59.450Z,52.60
2022-07-28T11:11:07.673Z,52.70
2022-07-28T11:16:22.208Z,52.50
2022-07-28T11:21:25.825Z,52.40
2022-07-28T11:26:40.177Z,52.40
2022-07-28T11:31:58.687Z,52.40
2022-07-28T11:37:05.297Z,52.20
2022-07-28T11:42:23.702Z,51.70
2022-07-28T11:47:29.011Z,51.20
2022-07-28T11:52:34.134Z,51.20
2022-07-28T11:57:40.909Z,51.10
2022-07-28T12:02:44.129Z,50.90
2022-07-28T12:07:50.539Z,50.90
2022-07-28T12:12:54.636Z,50.30
2022-07-28T12:17:59.558Z,49.90
2022-07-28T12:23:05.380Z,49.70
2022-07-28T12:28:18.407Z,49.50
2022-07-28T12:33:26.177Z,49.50
2022-07-28T12:38:34.414Z,49.30
2022-07-28T12:43:37.862Z,48.90
2022-07-28T12:48:41.628Z,48.60
2022-07-28T12:53:52.892Z,48.50
2022-07-28T12:59:06.775Z,48.30
2022-07-28T13:04:10.214Z,48.30
2022-07-28T13:09:32.535Z,47.90
2022-07-28T13:14:42.359Z,47.50
2022-07-28T13:19:45.947Z,47.10
2022-07-28T13:24:50.944Z,47.00
2022-07-28T13:29:54.658Z,47.00
2022-07-28T13:34:58.376Z,46.60
2022-07-28T13:40:03.124Z,46.60
2022-07-28T13:45:06.837Z,46.50
2022-07-28T13:50:10.467Z,45.90
2022-07-28T13:55:17.634Z,45.50
2022-07-28T14:00:24.008Z,45.30
2022-07-28T14:05:32.240Z,45.10
2022-07-28T14:10:37.676Z,45.20
2022-07-28T14:15:41.353Z,44.80
2022-07-28T14:20:44.963Z,44.60
2022-07-28T14:25:50.900Z,44.40
2022-07-28T14:30:54.615Z,43.90
2022-07-28T14:35:57.998Z,43.80
2022-07-28T14:41:02.924Z,43.80
2022-07-28T14:46:16.421Z,43.70
2022-07-28T14:51:21.103Z,43.60
2022-07-28T14:56:25.516Z,43.10
2022-07-28T15:01:28.746Z,42.80
2022-07-28T15:06:39.887Z,42.60
2022-07-28T15:11:47.114Z,42.40
2022-07-28T15:16:50.378Z,42.30
2022-07-28T15:21:53.847Z,41.70
2022-07-28T15:26:59.235Z,42.00
2022-07-28T15:32:02.613Z,41.30
2022-07-28T15:37:08.186Z,41.80
2022-07-28T15:42:14.400Z,41.80
2022-07-28T15:47:17.843Z,41.90
2022-07-28T15:52:21.350Z,41.20
2022-07-28T15:57:26.074Z,41.60
2022-07-28T16:02:41.635Z,41.10
2022-07-28T16:07:45.343Z,40.90
2022-07-28T16:12:50.073Z,41.30
2022-07-28T16:17:53.562Z,40.80
2022-07-28T16:22:57.925Z,41.20
2022-07-28T16:28:04.090Z,40.40
2022-07-28T16:33:09.007Z,40.90
2022-07-28T16:38:13.175Z,40.10
2022-07-28T16:43:18.230Z,40.50
2022-07-28T16:48:21.794Z,39.70
2022-07-28T16:53:25.593Z,40.00
2022-07-28T16:58:30.356Z,39.40
2022-07-28T17:03:33.455Z,39.70
2022-07-28T17:08:37.047Z,39.20
2022-07-28T17:13:45.248Z,39.50
2022-07-28T17:18:48.714Z,38.80
2022-07-28T17:23:51.895Z,39.20
2022-07-28T17:28:56.915Z,38.60
2022-07-28T17:34:00.663Z,39.00
2022-07-28T17:39:04.974Z,38.30
2022-07-28T17:44:09.905Z,38.40
2022-07-28T17:49:13.237Z,38.20
2022-07-28T17:54:19.011Z,39.00
2022-07-28T17:59:26.698Z,40.00
2022-07-28T18:04:50.092Z,40.70
2022-07-28T18:09:53.210Z,41.20
2022-07-28T18:14:59.409Z,41.90
2022-07-28T18:20:02.912Z,42.20
2022-07-28T18:25:08.931Z,42.90
2022-07-28T18:30:15.035Z,43.20
2022-07-28T18:35:19.566Z,43.90
2022-07-28T18:40:23.913Z,44.70
2022-07-28T18:45:28.344Z,44.70
2022-07-28T18:50:31.963Z,45.60
2022-07-28T18:55:35.922Z,45.80
2022-07-28T19:00:40.529Z,46.60
2022-07-28T19:05:46.179Z,47.20
2022-07-28T19:10:50.139Z,47.90
2022-07-28T19:15:54.699Z,48.40
2022-07-28T19:20:57.903Z,48.60
2022-07-28T19:26:02.394Z,49.10
2022-07-28T19:31:10.550Z,49.50
2022-07-28T19:36:15.137Z,49.60
2022-07-28T19:41:18.813Z,50.40
2022-07-28T19:46:24.459Z,50.50
2022-07-28T19:51:29.677Z,51.00
2022-07-28T19:56:33.009Z,51.40
2022-07-28T20:01:46.053Z,51.80
2022-07-28T20:06:55.634Z,52.30
2022-07-28T20:11:59.414Z,52.50
2022-07-28T20:17:04.149Z,53.20
2022-07-28T20:22:08.401Z,53.30
2022-07-28T20:27:12.198Z,53.80
2022-07-28T20:32:16.645Z,54.30
2022-07-28T20:37:35.920Z,55.10
2022-07-28T20:42:40.922Z,55.20
2022-07-28T20:47:45.839Z,56.20
2022-07-28T20:52:49.285Z,56.60
2022-07-28T20:57:55.969Z,57.00
2022-07-28T21:03:01.559Z,57.40
2022-07-28T21:08:09.279Z,57.80
2022-07-28T21:13:19.599Z,58.20
2022-07-28T21:18:24.394Z,58.70
2022-07-28T21:23:27.940Z,59.10
2022-07-28T21:29:00.301Z,59.60
2022-07-28T21:34:04.774Z,60.10
2022-07-28T21:39:07.934Z,60.60
2022-07-28T21:44:12.774Z,60.90
2022-07-28T21:49:17.761Z,61.30
2022-07-28T21:54:21.694Z,61.60
2022-07-28T21:59:24.779Z,62.00
2022-07-28T22:04:29.674Z,62.30
2022-07-28T22:09:37.772Z,62.60
2022-07-28T22:14:41.502Z,62.90
2022-07-28T22:19:46.133Z,63.30
2022-07-28T22:24:49.595Z,63.50
2022-07-28T22:29:53.308Z,63.80
2022-07-28T22:34:58.658Z,64.00
2022-07-28T22:40:01.736Z,64.20
2022-07-28T22:45:05.870Z,64.40
2022-07-28T22:50:11.109Z,64.70
2022-07-28T22:55:14.248Z,65.00
2022-07-28T23:00:20.765Z,65.10
2022-07-28T23:05:25.962Z,65.30
2022-07-28T23:10:30.711Z,65.60
2022-07-28T23:15:40.748Z,65.80
2022-07-28T23:20:46.254Z,65.90
2022-07-28T23:25:49.371Z,66.20
2022-07-28T23:30:52.611Z,66.20
2022-07-28T23:35:57.207Z,66.40
2022-07-28T23:41:00.645Z,66.40
2022-07-28T23:46:05.398Z,66.50
2022-07-28T23:51:10.267Z,66.50
2022-07-28T23:56:14.702Z,66.50
